sensor_id;sensor_type;location;lat;lon;timestamp;temperature;humidity
292;DHT22;23311;48.776;9.162;2023-06-26T00:01:29;21.60;78.60
292;DHT22;23311;48.776;9.162;2023-06-26T00:03:58;21.50;78.70
292;DHT22;23311;48.776;9.162;2023-06-26T00:06:27;21.70;78.30
292;DHT22;23311;48.776;9.162;2023-06-26T00:08:55;21.70;78.20
292;DHT22;23311;48.776;9.162;2023-06-26T00:11:25;21.80;77.90
292;DHT22;23311;48.776;9.162;2023-06-26T00:13:54;21.80;78.00
292;DHT22;23311;48.776;9.162;2023-06-26T00:16:23;21.80;77.80
292;DHT22;23311;48.776;9.162;2023-06-26T00:18:52;21.80;77.90
292;DHT22;23311;48.776;9.162;2023-06-26T00:21:20;21.80;78.00
292;DHT22;23311;48.776;9.162;2023-06-26T00:23:48;21.70;78.30
292;DHT22;23311;48.776;9.162;2023-06-26T00:26:17;21.70;78.30
292;DHT22;23311;48.776;9.162;2023-06-26T00:28:45;21.70;78.30
292;DHT22;23311;48.776;9.162;2023-06-26T00:31:13;21.60;78.50
292;DHT22;23311;48.776;9.162;2023-06-26T00:33:42;21.40;79.20
292;DHT22;23311;48.776;9.162;2023-06-26T00:36:10;21.20;79.80
292;DHT22;23311;48.776;9.162;2023-06-26T00:38:39;21.10;80.40
292;DHT22;23311;48.776;9.162;2023-06-26T00:41:07;21.40;80.30
292;DHT22;23311;48.776;9.162;2023-06-26T00:43:40;21.20;80.10
292;DHT22;23311;48.776;9.162;2023-06-26T00:46:09;21.10;80.50
292;DHT22;23311;48.776;9.162;2023-06-26T00:48:39;21.30;79.90
292;DHT22;23311;48.776;9.162;2023-06-26T00:51:13;21.20;80.10
292;DHT22;23311;48.776;9.162;2023-06-26T00:53:42;21.10;80.40
292;DHT22;23311;48.776;9.162;2023-06-26T00:56:10;21.10;80.80
292;DHT22;23311;48.776;9.162;2023-06-26T00:58:39;21.00;80.70
292;DHT22;23311;48.776;9.162;2023-06-26T01:01:07;21.00;81.20
292;DHT22;23311;48.776;9.162;2023-06-26T01:03:41;21.20;80.70
292;DHT22;23311;48.776;9.162;2023-06-26T01:06:13;21.30;80.40
292;DHT22;23311;48.776;9.162;2023-06-26T01:08:43;21.20;80.50
292;DHT22;23311;48.776;9.162;2023-06-26T01:11:11;21.40;80.00
292;DHT22;23311;48.776;9.162;2023-06-26T01:13:41;21.30;80.10
292;DHT22;23311;48.776;9.162;2023-06-26T01:16:10;21.30;80.10
292;DHT22;23311;48.776;9.162;2023-06-26T01:18:39;21.20;79.90
292;DHT22;23311;48.776;9.162;2023-06-26T01:21:09;21.20;80.00
292;DHT22;23311;48.776;9.162;2023-06-26T01:23:48;21.10;80.20
292;DHT22;23311;48.776;9.162;2023-06-26T01:26:22;21.00;80.50
292;DHT22;23311;48.776;9.162;2023-06-26T01:28:52;20.90;80.70
292;DHT22;23311;48.776;9.162;2023-06-26T01:31:21;20.80;81.00
292;DHT22;23311;48.776;9.162;2023-06-26T01:33:49;20.80;81.10
292;DHT22;23311;48.776;9.162;2023-06-26T01:36:18;20.70;81.40
292;DHT22;23311;48.776;9.162;2023-06-26T01:38:46;20.70;81.40
292;DHT22;23311;48.776;9.162;2023-06-26T01:41:14;20.80;81.20
292;DHT22;23311;48.776;9.162;2023-06-26T01:44:02;20.80;81.00
292;DHT22;23311;48.776;9.162;2023-06-26T01:46:38;20.70;81.50
292;DHT22;23311;48.776;9.162;2023-06-26T01:49:20;20.80;81.60
292;DHT22;23311;48.776;9.162;2023-06-26T01:51:57;20.80;81.40
292;DHT22;23311;48.776;9.162;2023-06-26T01:54:29;20.80;81.30
292;DHT22;23311;48.776;9.162;2023-06-26T01:56:59;20.90;81.20
292;DHT22;23311;48.776;9.162;2023-06-26T01:59:32;20.90;81.30
292;DHT22;23311;48.776;9.162;2023-06-26T02:02:01;20.90;81.30
292;DHT22;23311;48.776;9.162;2023-06-26T02:04:29;20.90;81.30
292;DHT22;23311;48.776;9.162;2023-06-26T02:06:57;20.90;81.40
292;DHT22;23311;48.776;9.162;2023-06-26T02:09:25;20.90;81.50
292;DHT22;23311;48.776;9.162;2023-06-26T02:11:53;20.90;81.40
292;DHT22;23311;48.776;9.162;2023-06-26T02:14:21;21.00;81.30
292;DHT22;23311;48.776;9.162;2023-06-26T02:16:51;20.90;81.40
292;DHT22;23311;48.776;9.162;2023-06-26T02:19:19;20.80;81.50
292;DHT22;23311;48.776;9.162;2023-06-26T02:21:50;20.70;82.00
292;DHT22;23311;48.776;9.162;2023-06-26T02:24:18;20.70;82.20
292;DHT22;23311;48.776;9.162;2023-06-26T02:26:46;20.60;82.70
292;DHT22;23311;48.776;9.162;2023-06-26T02:29:15;20.40;83.00
292;DHT22;23311;48.776;9.162;2023-06-26T02:31:44;20.20;83.40
292;DHT22;23311;48.776;9.162;2023-06-26T02:34:13;20.10;83.90
292;DHT22;23311;48.776;9.162;2023-06-26T02:36:41;20.00;84.30
292;DHT22;23311;48.776;9.162;2023-06-26T02:39:09;19.90;84.80
292;DHT22;23311;48.776;9.162;2023-06-26T02:41:37;19.90;85.00
292;DHT22;23311;48.776;9.162;2023-06-26T02:44:05;19.80;84.90
292;DHT22;23311;48.776;9.162;2023-06-26T02:46:34;19.70;85.10
292;DHT22;23311;48.776;9.162;2023-06-26T02:49:02;19.70;85.60
292;DHT22;23311;48.776;9.162;2023-06-26T02:51:32;19.70;85.60
292;DHT22;23311;48.776;9.162;2023-06-26T02:54:00;19.60;85.80
292;DHT22;23311;48.776;9.162;2023-06-26T02:56:28;19.60;86.00
292;DHT22;23311;48.776;9.162;2023-06-26T02:58:56;19.60;86.20
292;DHT22;23311;48.776;9.162;2023-06-26T03:01:24;19.50;86.30
292;DHT22;23311;48.776;9.162;2023-06-26T03:03:53;19.50;86.50
292;DHT22;23311;48.776;9.162;2023-06-26T03:06:21;19.50;86.50
292;DHT22;23311;48.776;9.162;2023-06-26T03:08:51;19.50;86.50
292;DHT22;23311;48.776;9.162;2023-06-26T03:11:19;19.60;86.80
292;DHT22;23311;48.776;9.162;2023-06-26T03:13:47;19.70;86.40
292;DHT22;23311;48.776;9.162;2023-06-26T03:16:15;19.60;86.70
292;DHT22;23311;48.776;9.162;2023-06-26T03:18:43;19.60;86.90
292;DHT22;23311;48.776;9.162;2023-06-26T03:21:11;19.50;87.10
292;DHT22;23311;48.776;9.162;2023-06-26T03:23:39;19.50;87.20
292;DHT22;23311;48.776;9.162;2023-06-26T03:26:09;19.50;87.20
292;DHT22;23311;48.776;9.162;2023-06-26T03:28:37;19.50;87.30
292;DHT22;23311;48.776;9.162;2023-06-26T03:31:05;19.50;87.50
292;DHT22;23311;48.776;9.162;2023-06-26T03:33:33;19.50;87.60
292;DHT22;23311;48.776;9.162;2023-06-26T03:36:01;19.50;87.70
292;DHT22;23311;48.776;9.162;2023-06-26T03:38:29;19.50;87.50
292;DHT22;23311;48.776;9.162;2023-06-26T03:40:57;19.60;87.30
292;DHT22;23311;48.776;9.162;2023-06-26T03:43:27;19.60;87.30
292;DHT22;23311;48.776;9.162;2023-06-26T03:45:55;19.60;87.30
292;DHT22;23311;48.776;9.162;2023-06-26T03:48:23;19.70;86.90
292;DHT22;23311;48.776;9.162;2023-06-26T03:50:51;19.80;86.60
292;DHT22;23311;48.776;9.162;2023-06-26T03:53:19;19.80;86.50
292;DHT22;23311;48.776;9.162;2023-06-26T03:55:48;19.90;86.60
292;DHT22;23311;48.776;9.162;2023-06-26T03:58:16;19.90;86.40
292;DHT22;23311;48.776;9.162;2023-06-26T04:00:45;19.90;86.40
292;DHT22;23311;48.776;9.162;2023-06-26T04:03:14;19.90;86.50
292;DHT22;23311;48.776;9.162;2023-06-26T04:05:42;20.00;86.30
292;DHT22;23311;48.776;9.162;2023-06-26T04:08:10;20.20;85.80
292;DHT22;23311;48.776;9.162;2023-06-26T04:10:38;20.60;85.00
292;DHT22;23311;48.776;9.162;2023-06-26T04:13:06;21.30;83.40
292;DHT22;23311;48.776;9.162;2023-06-26T04:15:34;22.20;81.50
292;DHT22;23311;48.776;9.162;2023-06-26T04:18:04;23.00;79.40
292;DHT22;23311;48.776;9.162;2023-06-26T04:20:33;23.70;77.80
292;DHT22;23311;48.776;9.162;2023-06-26T04:23:02;24.40;76.10
292;DHT22;23311;48.776;9.162;2023-06-26T04:25:30;24.90;74.40
292;DHT22;23311;48.776;9.162;2023-06-26T04:27:58;25.30;73.70
292;DHT22;23311;48.776;9.162;2023-06-26T04:30:26;25.80;71.70
292;DHT22;23311;48.776;9.162;2023-06-26T04:32:54;26.20;70.30
292;DHT22;23311;48.776;9.162;2023-06-26T04:35:27;26.40;69.70
292;DHT22;23311;48.776;9.162;2023-06-26T04:37:55;26.60;69.50
292;DHT22;23311;48.776;9.162;2023-06-26T04:40:23;27.00;69.20
292;DHT22;23311;48.776;9.162;2023-06-26T04:42:51;27.20;68.80
292;DHT22;23311;48.776;9.162;2023-06-26T04:45:19;27.10;68.60
292;DHT22;23311;48.776;9.162;2023-06-26T04:47:47;26.80;69.40
292;DHT22;23311;48.776;9.162;2023-06-26T04:50:15;26.40;70.40
292;DHT22;23311;48.776;9.162;2023-06-26T04:52:46;26.10;71.40
292;DHT22;23311;48.776;9.162;2023-06-26T04:55:15;25.70;71.90
292;DHT22;23311;48.776;9.162;2023-06-26T04:57:43;25.30;72.30
292;DHT22;23311;48.776;9.162;2023-06-26T05:00:12;25.60;72.50
292;DHT22;23311;48.776;9.162;2023-06-26T05:02:40;26.30;71.20
292;DHT22;23311;48.776;9.162;2023-06-26T05:05:08;25.90;71.50
292;DHT22;23311;48.776;9.162;2023-06-26T05:07:37;26.00;71.80
292;DHT22;23311;48.776;9.162;2023-06-26T05:10:08;25.90;72.00
292;DHT22;23311;48.776;9.162;2023-06-26T05:12:36;25.90;72.60
292;DHT22;23311;48.776;9.162;2023-06-26T05:15:05;25.70;72.80
292;DHT22;23311;48.776;9.162;2023-06-26T05:17:33;25.30;73.30
292;DHT22;23311;48.776;9.162;2023-06-26T05:20:01;24.90;74.80
292;DHT22;23311;48.776;9.162;2023-06-26T05:22:30;24.80;75.20
292;DHT22;23311;48.776;9.162;2023-06-26T05:24:59;25.30;74.20
292;DHT22;23311;48.776;9.162;2023-06-26T05:27:30;25.70;73.60
292;DHT22;23311;48.776;9.162;2023-06-26T05:29:58;26.90;71.20
292;DHT22;23311;48.776;9.162;2023-06-26T05:32:27;28.00;68.40
292;DHT22;23311;48.776;9.162;2023-06-26T05:34:55;28.50;67.20
292;DHT22;23311;48.776;9.162;2023-06-26T05:37:26;29.30;66.00
292;DHT22;23311;48.776;9.162;2023-06-26T05:39:56;29.80;64.90
292;DHT22;23311;48.776;9.162;2023-06-26T05:42:25;30.40;63.60
292;DHT22;23311;48.776;9.162;2023-06-26T05:44:56;29.90;64.30
292;DHT22;23311;48.776;9.162;2023-06-26T05:47:24;30.80;63.10
292;DHT22;23311;48.776;9.162;2023-06-26T05:49:52;31.20;62.40
292;DHT22;23311;48.776;9.162;2023-06-26T05:52:21;31.90;61.20
292;DHT22;23311;48.776;9.162;2023-06-26T05:54:49;32.10;60.40
292;DHT22;23311;48.776;9.162;2023-06-26T05:57:18;32.90;59.30
292;DHT22;23311;48.776;9.162;2023-06-26T05:59:47;32.50;59.50
292;DHT22;23311;48.776;9.162;2023-06-26T06:02:17;32.80;59.10
292;DHT22;23311;48.776;9.162;2023-06-26T06:04:45;33.50;57.80
292;DHT22;23311;48.776;9.162;2023-06-26T06:07:13;33.00;58.90
292;DHT22;23311;48.776;9.162;2023-06-26T06:09:42;32.40;60.00
292;DHT22;23311;48.776;9.162;2023-06-26T06:12:10;31.90;60.80
292;DHT22;23311;48.776;9.162;2023-06-26T06:14:38;31.30;61.80
292;DHT22;23311;48.776;9.162;2023-06-26T06:17:06;31.40;62.00
292;DHT22;23311;48.776;9.162;2023-06-26T06:19:35;32.10;60.70
292;DHT22;23311;48.776;9.162;2023-06-26T06:22:04;32.90;59.00
292;DHT22;23311;48.776;9.162;2023-06-26T06:24:32;33.80;57.70
292;DHT22;23311;48.776;9.162;2023-06-26T06:27:00;34.10;57.00
292;DHT22;23311;48.776;9.162;2023-06-26T06:29:28;34.30;57.30
292;DHT22;23311;48.776;9.162;2023-06-26T06:31:56;34.30;57.40
292;DHT22;23311;48.776;9.162;2023-06-26T06:34:24;33.80;58.10
292;DHT22;23311;48.776;9.162;2023-06-26T06:36:54;33.60;58.80
292;DHT22;23311;48.776;9.162;2023-06-26T06:39:22;33.40;59.10
292;DHT22;23311;48.776;9.162;2023-06-26T06:41:50;33.30;59.10
292;DHT22;23311;48.776;9.162;2023-06-26T06:44:18;33.10;59.40
292;DHT22;23311;48.776;9.162;2023-06-26T06:46:46;33.00;59.40
292;DHT22;23311;48.776;9.162;2023-06-26T06:49:14;33.40;58.50
292;DHT22;23311;48.776;9.162;2023-06-26T06:51:42;34.20;56.80
292;DHT22;23311;48.776;9.162;2023-06-26T06:54:11;34.10;57.00
292;DHT22;23311;48.776;9.162;2023-06-26T06:56:40;35.00;56.20
292;DHT22;23311;48.776;9.162;2023-06-26T06:59:08;34.80;55.80
292;DHT22;23311;48.776;9.162;2023-06-26T07:01:36;35.30;54.60
292;DHT22;23311;48.776;9.162;2023-06-26T07:04:04;36.40;54.10
292;DHT22;23311;48.776;9.162;2023-06-26T07:06:32;36.80;54.30
292;DHT22;23311;48.776;9.162;2023-06-26T07:09:01;35.60;55.50
292;DHT22;23311;48.776;9.162;2023-06-26T07:11:31;34.80;56.70
292;DHT22;23311;48.776;9.162;2023-06-26T07:13:59;34.60;57.40
292;DHT22;23311;48.776;9.162;2023-06-26T07:16:27;34.80;57.40
292;DHT22;23311;48.776;9.162;2023-06-26T07:18:55;35.20;56.80
292;DHT22;23311;48.776;9.162;2023-06-26T07:21:24;35.70;56.00
292;DHT22;23311;48.776;9.162;2023-06-26T07:23:52;36.30;55.00
292;DHT22;23311;48.776;9.162;2023-06-26T07:26:21;35.10;56.90
292;DHT22;23311;48.776;9.162;2023-06-26T07:29:11;35.60;56.10
292;DHT22;23311;48.776;9.162;2023-06-26T07:31:39;36.00;55.50
292;DHT22;23311;48.776;9.162;2023-06-26T07:34:07;36.30;55.20
292;DHT22;23311;48.776;9.162;2023-06-26T07:36:35;35.90;55.60
292;DHT22;23311;48.776;9.162;2023-06-26T07:39:03;35.20;56.40
292;DHT22;23311;48.776;9.162;2023-06-26T07:41:31;35.20;56.90
292;DHT22;23311;48.776;9.162;2023-06-26T07:43:59;35.50;56.50
292;DHT22;23311;48.776;9.162;2023-06-26T07:46:28;35.80;55.90
292;DHT22;23311;48.776;9.162;2023-06-26T07:48:57;36.00;55.40
292;DHT22;23311;48.776;9.162;2023-06-26T07:51:25;36.70;54.70
292;DHT22;23311;48.776;9.162;2023-06-26T07:53:53;37.70;53.20
292;DHT22;23311;48.776;9.162;2023-06-26T07:56:21;37.90;53.00
292;DHT22;23311;48.776;9.162;2023-06-26T07:58:49;37.90;52.70
292;DHT22;23311;48.776;9.162;2023-06-26T08:01:17;37.20;53.70
292;DHT22;23311;48.776;9.162;2023-06-26T08:03:46;37.10;54.00
292;DHT22;23311;48.776;9.162;2023-06-26T08:06:15;36.80;54.30
292;DHT22;23311;48.776;9.162;2023-06-26T08:08:43;37.10;53.90
292;DHT22;23311;48.776;9.162;2023-06-26T08:11:11;37.30;53.90
292;DHT22;23311;48.776;9.162;2023-06-26T08:13:39;37.90;53.00
292;DHT22;23311;48.776;9.162;2023-06-26T08:16:07;37.40;53.00
292;DHT22;23311;48.776;9.162;2023-06-26T08:18:35;36.40;54.50
292;DHT22;23311;48.776;9.162;2023-06-26T08:21:05;37.20;53.80
292;DHT22;23311;48.776;9.162;2023-06-26T08:23:33;37.90;52.90
292;DHT22;23311;48.776;9.162;2023-06-26T08:26:01;37.70;52.50
292;DHT22;23311;48.776;9.162;2023-06-26T08:28:29;37.70;52.20
292;DHT22;23311;48.776;9.162;2023-06-26T08:30:57;38.40;51.40
292;DHT22;23311;48.776;9.162;2023-06-26T08:33:26;38.10;51.50
292;DHT22;23311;48.776;9.162;2023-06-26T08:35:54;38.10;51.00
292;DHT22;23311;48.776;9.162;2023-06-26T08:38:24;37.20;52.00
292;DHT22;23311;48.776;9.162;2023-06-26T08:40:52;37.10;52.60
292;DHT22;23311;48.776;9.162;2023-06-26T08:43:20;36.00;53.90
292;DHT22;23311;48.776;9.162;2023-06-26T08:45:48;35.70;54.60
292;DHT22;23311;48.776;9.162;2023-06-26T08:48:18;36.20;54.40
292;DHT22;23311;48.776;9.162;2023-06-26T08:50:49;37.40;52.60
292;DHT22;23311;48.776;9.162;2023-06-26T08:53:23;38.60;51.10
292;DHT22;23311;48.776;9.162;2023-06-26T08:55:54;39.20;49.90
292;DHT22;23311;48.776;9.162;2023-06-26T08:58:25;37.90;51.10
292;DHT22;23311;48.776;9.162;2023-06-26T09:00:53;37.60;51.90
292;DHT22;23311;48.776;9.162;2023-06-26T09:03:24;37.80;51.30
292;DHT22;23311;48.776;9.162;2023-06-26T09:05:53;38.80;50.40
292;DHT22;23311;48.776;9.162;2023-06-26T09:08:21;36.60;52.60
292;DHT22;23311;48.776;9.162;2023-06-26T09:10:49;36.90;52.80
292;DHT22;23311;48.776;9.162;2023-06-26T09:13:19;37.30;52.10
292;DHT22;23311;48.776;9.162;2023-06-26T09:15:56;37.70;51.60
292;DHT22;23311;48.776;9.162;2023-06-26T09:18:24;36.90;52.70
292;DHT22;23311;48.776;9.162;2023-06-26T09:20:53;37.30;51.90
292;DHT22;23311;48.776;9.162;2023-06-26T09:23:22;35.40;53.70
292;DHT22;23311;48.776;9.162;2023-06-26T09:25:51;36.20;53.20
292;DHT22;23311;48.776;9.162;2023-06-26T09:28:21;36.50;52.50
292;DHT22;23311;48.776;9.162;2023-06-26T09:30:49;36.60;53.10
292;DHT22;23311;48.776;9.162;2023-06-26T09:33:19;37.40;52.20
292;DHT22;23311;48.776;9.162;2023-06-26T09:35:48;38.00;51.20
292;DHT22;23311;48.776;9.162;2023-06-26T09:38:16;37.80;51.40
292;DHT22;23311;48.776;9.162;2023-06-26T09:40:45;36.20;53.10
292;DHT22;23311;48.776;9.162;2023-06-26T09:43:13;36.10;53.70
292;DHT22;23311;48.776;9.162;2023-06-26T09:45:43;37.20;52.30
292;DHT22;23311;48.776;9.162;2023-06-26T09:48:13;38.40;50.90
292;DHT22;23311;48.776;9.162;2023-06-26T09:50:44;36.80;52.50
292;DHT22;23311;48.776;9.162;2023-06-26T09:53:35;36.80;52.70
292;DHT22;23311;48.776;9.162;2023-06-26T09:56:05;36.30;53.50
292;DHT22;23311;48.776;9.162;2023-06-26T09:58:35;36.60;53.30
292;DHT22;23311;48.776;9.162;2023-06-26T10:01:05;36.10;54.10
292;DHT22;23311;48.776;9.162;2023-06-26T10:03:36;36.20;54.50
292;DHT22;23311;48.776;9.162;2023-06-26T10:06:05;35.60;54.80
292;DHT22;23311;48.776;9.162;2023-06-26T10:08:37;34.20;56.70
292;DHT22;23311;48.776;9.162;2023-06-26T10:11:07;35.00;56.40
292;DHT22;23311;48.776;9.162;2023-06-26T10:13:38;35.20;55.90
292;DHT22;23311;48.776;9.162;2023-06-26T10:16:10;34.70;56.60
292;DHT22;23311;48.776;9.162;2023-06-26T10:18:39;36.00;55.40
292;DHT22;23311;48.776;9.162;2023-06-26T10:21:08;35.90;55.10
292;DHT22;23311;48.776;9.162;2023-06-26T10:23:39;34.80;56.70
292;DHT22;23311;48.776;9.162;2023-06-26T10:26:08;33.70;58.90
292;DHT22;23311;48.776;9.162;2023-06-26T10:28:37;33.30;59.80
292;DHT22;23311;48.776;9.162;2023-06-26T10:31:09;32.90;60.30
292;DHT22;23311;48.776;9.162;2023-06-26T10:33:38;32.40;60.50
292;DHT22;23311;48.776;9.162;2023-06-26T10:36:17;32.00;61.70
292;DHT22;23311;48.776;9.162;2023-06-26T10:38:49;32.10;62.20
292;DHT22;23311;48.776;9.162;2023-06-26T10:41:20;32.00;62.60
292;DHT22;23311;48.776;9.162;2023-06-26T10:43:50;31.50;63.20
292;DHT22;23311;48.776;9.162;2023-06-26T10:46:21;32.40;61.40
292;DHT22;23311;48.776;9.162;2023-06-26T10:48:56;32.80;60.00
292;DHT22;23311;48.776;9.162;2023-06-26T10:51:26;32.80;60.20
292;DHT22;23311;48.776;9.162;2023-06-26T10:53:55;33.70;59.30
292;DHT22;23311;48.776;9.162;2023-06-26T10:56:41;33.80;58.90
292;DHT22;23311;48.776;9.162;2023-06-26T10:59:18;34.20;58.70
292;DHT22;23311;48.776;9.162;2023-06-26T11:01:54;33.90;58.80
292;DHT22;23311;48.776;9.162;2023-06-26T11:04:39;34.30;58.00
292;DHT22;23311;48.776;9.162;2023-06-26T11:07:15;33.60;59.30
292;DHT22;23311;48.776;9.162;2023-06-26T11:09:55;34.40;58.30
292;DHT22;23311;48.776;9.162;2023-06-26T11:12:37;34.60;57.80
292;DHT22;23311;48.776;9.162;2023-06-26T11:15:09;33.90;58.50
292;DHT22;23311;48.776;9.162;2023-06-26T11:17:39;33.70;59.00
292;DHT22;23311;48.776;9.162;2023-06-26T11:20:09;33.50;59.20
292;DHT22;23311;48.776;9.162;2023-06-26T11:22:38;33.10;60.00
292;DHT22;23311;48.776;9.162;2023-06-26T11:25:08;33.90;58.80
292;DHT22;23311;48.776;9.162;2023-06-26T11:27:40;33.00;60.40
292;DHT22;23311;48.776;9.162;2023-06-26T11:30:10;33.30;59.90
292;DHT22;23311;48.776;9.162;2023-06-26T11:32:40;33.20;59.50
292;DHT22;23311;48.776;9.162;2023-06-26T11:35:08;33.50;59.60
292;DHT22;23311;48.776;9.162;2023-06-26T11:37:37;33.00;60.60
292;DHT22;23311;48.776;9.162;2023-06-26T11:40:18;32.80;61.60
292;DHT22;23311;48.776;9.162;2023-06-26T11:42:46;33.20;61.20
292;DHT22;23311;48.776;9.162;2023-06-26T11:45:15;33.50;60.90
292;DHT22;23311;48.776;9.162;2023-06-26T11:47:44;33.00;61.90
292;DHT22;23311;48.776;9.162;2023-06-26T11:50:15;32.70;61.90
292;DHT22;23311;48.776;9.162;2023-06-26T11:52:44;32.00;63.00
292;DHT22;23311;48.776;9.162;2023-06-26T11:55:12;31.40;63.70
292;DHT22;23311;48.776;9.162;2023-06-26T11:57:40;31.20;64.60
292;DHT22;23311;48.776;9.162;2023-06-26T12:00:12;31.60;63.80
292;DHT22;23311;48.776;9.162;2023-06-26T12:02:41;31.50;64.60
292;DHT22;23311;48.776;9.162;2023-06-26T12:05:11;32.00;64.40
292;DHT22;23311;48.776;9.162;2023-06-26T12:07:40;32.30;65.20
292;DHT22;23311;48.776;9.162;2023-06-26T12:10:10;32.00;66.30
292;DHT22;23311;48.776;9.162;2023-06-26T12:12:39;32.70;65.10
292;DHT22;23311;48.776;9.162;2023-06-26T12:15:08;32.90;64.90
292;DHT22;23311;48.776;9.162;2023-06-26T12:17:41;32.80;65.00
292;DHT22;23311;48.776;9.162;2023-06-26T12:20:21;32.30;66.00
292;DHT22;23311;48.776;9.162;2023-06-26T12:22:49;32.10;66.20
292;DHT22;23311;48.776;9.162;2023-06-26T12:25:22;32.20;66.20
292;DHT22;23311;48.776;9.162;2023-06-26T12:27:51;32.10;66.30
292;DHT22;23311;48.776;9.162;2023-06-26T12:30:19;32.50;65.80
292;DHT22;23311;48.776;9.162;2023-06-26T12:32:47;32.20;66.20
292;DHT22;23311;48.776;9.162;2023-06-26T12:35:15;32.40;65.70
292;DHT22;23311;48.776;9.162;2023-06-26T12:37:45;33.40;63.90
292;DHT22;23311;48.776;9.162;2023-06-26T12:40:17;33.80;63.00
292;DHT22;23311;48.776;9.162;2023-06-26T12:42:46;33.10;64.00
292;DHT22;23311;48.776;9.162;2023-06-26T12:45:15;33.40;63.60
292;DHT22;23311;48.776;9.162;2023-06-26T12:48:07;33.40;63.60
292;DHT22;23311;48.776;9.162;2023-06-26T12:50:38;33.50;63.40
292;DHT22;23311;48.776;9.162;2023-06-26T12:53:12;33.80;63.30
292;DHT22;23311;48.776;9.162;2023-06-26T12:55:41;33.60;62.70
292;DHT22;23311;48.776;9.162;2023-06-26T12:58:09;33.10;63.50
292;DHT22;23311;48.776;9.162;2023-06-26T13:00:37;32.50;64.60
292;DHT22;23311;48.776;9.162;2023-06-26T13:03:06;33.00;63.90
292;DHT22;23311;48.776;9.162;2023-06-26T13:05:37;32.70;64.30
292;DHT22;23311;48.776;9.162;2023-06-26T13:08:06;32.70;64.20
292;DHT22;23311;48.776;9.162;2023-06-26T13:10:36;32.00;65.40
292;DHT22;23311;48.776;9.162;2023-06-26T13:13:07;32.00;66.00
292;DHT22;23311;48.776;9.162;2023-06-26T13:15:35;32.80;64.30
292;DHT22;23311;48.776;9.162;2023-06-26T13:18:04;33.10;63.40
292;DHT22;23311;48.776;9.162;2023-06-26T13:20:32;32.80;63.60
292;DHT22;23311;48.776;9.162;2023-06-26T13:23:01;33.30;63.10
292;DHT22;23311;48.776;9.162;2023-06-26T13:25:33;32.70;63.50
292;DHT22;23311;48.776;9.162;2023-06-26T13:28:12;32.60;63.80
292;DHT22;23311;48.776;9.162;2023-06-26T13:30:40;32.80;63.10
292;DHT22;23311;48.776;9.162;2023-06-26T13:33:09;32.70;63.50
292;DHT22;23311;48.776;9.162;2023-06-26T13:35:41;33.10;62.80
292;DHT22;23311;48.776;9.162;2023-06-26T13:38:10;33.40;61.90
292;DHT22;23311;48.776;9.162;2023-06-26T13:40:38;32.70;62.90
292;DHT22;23311;48.776;9.162;2023-06-26T13:43:07;32.20;63.10
292;DHT22;23311;48.776;9.162;2023-06-26T13:45:37;32.00;63.60
292;DHT22;23311;48.776;9.162;2023-06-26T13:48:05;32.40;62.80
292;DHT22;23311;48.776;9.162;2023-06-26T13:50:34;31.70;62.90
292;DHT22;23311;48.776;9.162;2023-06-26T13:53:20;32.20;62.40
292;DHT22;23311;48.776;9.162;2023-06-26T13:55:48;32.90;61.80
292;DHT22;23311;48.776;9.162;2023-06-26T13:58:17;33.30;60.10
292;DHT22;23311;48.776;9.162;2023-06-26T14:00:50;32.90;60.30
292;DHT22;23311;48.776;9.162;2023-06-26T14:03:22;32.90;59.80
292;DHT22;23311;48.776;9.162;2023-06-26T14:05:50;32.20;60.50
292;DHT22;23311;48.776;9.162;2023-06-26T14:08:18;32.00;60.40
292;DHT22;23311;48.776;9.162;2023-06-26T14:10:46;31.90;60.70
292;DHT22;23311;48.776;9.162;2023-06-26T14:13:15;32.10;60.30
292;DHT22;23311;48.776;9.162;2023-06-26T14:15:43;32.70;59.50
292;DHT22;23311;48.776;9.162;2023-06-26T14:18:12;31.70;60.80
292;DHT22;23311;48.776;9.162;2023-06-26T14:20:40;32.50;59.50
292;DHT22;23311;48.776;9.162;2023-06-26T14:23:09;32.80;58.10
292;DHT22;23311;48.776;9.162;2023-06-26T14:25:37;32.50;58.30
292;DHT22;23311;48.776;9.162;2023-06-26T14:28:05;32.20;58.90
292;DHT22;23311;48.776;9.162;2023-06-26T14:30:34;32.10;59.00
292;DHT22;23311;48.776;9.162;2023-06-26T14:33:03;31.50;60.00
292;DHT22;23311;48.776;9.162;2023-06-26T14:35:32;31.20;60.60
292;DHT22;23311;48.776;9.162;2023-06-26T14:38:02;31.40;61.00
292;DHT22;23311;48.776;9.162;2023-06-26T14:40:30;32.10;59.80
292;DHT22;23311;48.776;9.162;2023-06-26T14:43:00;32.00;59.40
292;DHT22;23311;48.776;9.162;2023-06-26T14:45:28;31.60;59.90
292;DHT22;23311;48.776;9.162;2023-06-26T14:47:57;32.00;59.60
292;DHT22;23311;48.776;9.162;2023-06-26T14:50:25;32.40;59.30
292;DHT22;23311;48.776;9.162;2023-06-26T14:52:54;31.90;59.80
292;DHT22;23311;48.776;9.162;2023-06-26T14:55:23;32.00;59.90
292;DHT22;23311;48.776;9.162;2023-06-26T14:57:51;31.20;60.30
292;DHT22;23311;48.776;9.162;2023-06-26T15:00:19;31.50;60.80
292;DHT22;23311;48.776;9.162;2023-06-26T15:02:48;31.90;60.40
292;DHT22;23311;48.776;9.162;2023-06-26T15:05:16;31.40;61.40
292;DHT22;23311;48.776;9.162;2023-06-26T15:07:44;31.10;61.60
292;DHT22;23311;48.776;9.162;2023-06-26T15:10:14;31.10;61.40
292;DHT22;23311;48.776;9.162;2023-06-26T15:12:43;31.00;62.00
292;DHT22;23311;48.776;9.162;2023-06-26T15:15:11;31.00;61.40
292;DHT22;23311;48.776;9.162;2023-06-26T15:17:40;31.00;61.40
292;DHT22;23311;48.776;9.162;2023-06-26T15:20:08;31.60;60.90
292;DHT22;23311;48.776;9.162;2023-06-26T15:22:37;31.50;61.10
292;DHT22;23311;48.776;9.162;2023-06-26T15:25:06;30.60;62.40
292;DHT22;23311;48.776;9.162;2023-06-26T15:27:39;30.50;62.90
292;DHT22;23311;48.776;9.162;2023-06-26T15:30:09;30.70;62.90
292;DHT22;23311;48.776;9.162;2023-06-26T15:32:37;30.40;62.90
292;DHT22;23311;48.776;9.162;2023-06-26T15:35:06;30.60;62.30
292;DHT22;23311;48.776;9.162;2023-06-26T15:37:38;30.30;62.00
292;DHT22;23311;48.776;9.162;2023-06-26T15:40:07;30.20;61.60
292;DHT22;23311;48.776;9.162;2023-06-26T15:42:46;29.80;62.40
292;DHT22;23311;48.776;9.162;2023-06-26T15:45:14;30.30;62.00
292;DHT22;23311;48.776;9.162;2023-06-26T15:47:44;29.60;63.30
292;DHT22;23311;48.776;9.162;2023-06-26T15:50:13;30.00;63.00
292;DHT22;23311;48.776;9.162;2023-06-26T15:52:41;30.20;62.50
292;DHT22;23311;48.776;9.162;2023-06-26T15:55:09;29.70;62.90
292;DHT22;23311;48.776;9.162;2023-06-26T15:57:37;29.40;63.20
292;DHT22;23311;48.776;9.162;2023-06-26T16:00:08;29.30;63.80
292;DHT22;23311;48.776;9.162;2023-06-26T16:02:37;29.30;64.30
292;DHT22;23311;48.776;9.162;2023-06-26T16:05:06;29.40;64.20
292;DHT22;23311;48.776;9.162;2023-06-26T16:07:35;29.40;64.00
292;DHT22;23311;48.776;9.162;2023-06-26T16:10:21;29.20;64.20
292;DHT22;23311;48.776;9.162;2023-06-26T16:12:49;29.00;64.80
292;DHT22;23311;48.776;9.162;2023-06-26T16:15:19;28.80;65.40
292;DHT22;23311;48.776;9.162;2023-06-26T16:17:47;28.50;65.70